Airfield :
LOGIN :

Register | Disclaimer

   EN    FR    IT 

 










Legend :    VFR   Marginal VFR   IFR   Intensive IFR   Very Intensive IFR
Visi :
Ceiling :
>= 8 km
>= 3000ft
5 to 8 km
1000 to 3000 ft
1500m to 5 km
500 to 1000 ft
800 to 1500m
200 to 500 ft
< 800m
< 200 ft
Symbols :   Thunderstorms  Fog  Heavy snow  Heavy precipitations  Wind > 20 kt
SIGMETs :     Misc.  Thunderstorms  Icing  Turbulence  Mountain Waves  Volcanic Ashes






- Airport Elevation : 268 ft
- IATA code : BFS


EGAA - Belfast Aldergrove

CURRENT METAR :
  • 291120Z AUTO 01007KT 320V040 9999 SCT021 BKN025 15/11 Q1009

EXPIRED METARs :
  • 291050Z AUTO 01008KT 330V030 9999 FEW020 SCT029 15/11 Q1009
  • 291020Z AUTO 36009KT 330V030 9999 BKN026 BKN033 14/10 Q1009
  • 290950Z AUTO 01010KT 9999 BKN026 BKN046 13/11 Q1009
  • 290920Z AUTO 36011KT 9999 BKN026 OVC045 13/10 Q1009

TAF TAF EGAA
Valid from the 29 at 12:00 until the 30 at 12:00 UTC


291100Z 2912/3012 34007KT 9999 SCT030
BECMG 3000/3003 19012KT
BECMG 3003/3006 18020G30KT 6000 RA
PROB30
TEMPO 3003/3006 3000
BECMG 3006/3008 4000
TEMPO 3006/3011 +RA BKN008
PROB30
TEMPO 3008/3010 18025G40KT
BECMG 3010/3012 27020G30KT 9999 NSW SCT025
PROB40
TEMPO 3011/3012 +SHRA



MET'MAP, your aeronautical weather chart ! - Copyright ORBIFLY December 2007 - Disclaimer

ORBIFLY MET'MAP TEAM :

Programming & Development : Alexandra Zaïnal
Original concept : Baudouin d'Aumeries
Technical & hardware support : Manuel Goepfert
Assistance : Marc-Olivier Méhu




SOURCES & CREDITS :

   NOAA